Arcadia, Oklahoma
Current Conditions -  °F | °C
As of 9:53 PM on Saturday 22 Nov 2014 (Local Time) from KGOK Reporting Station
Overcast Overcast  
Wind Chill: 13°   Ceiling: 1000
Heat Index: 13°   Visibility: 10mi
Dew Point: 12°   Wind: 13mph
Humidity: 93%   Direction: 150°SSE
Pressure: 29.69"   Gusts: 18mph
Location:  35.67°N, 97.33°W
Report Text: KGOK 230353Z AUTO 15011G16KT 10SM BKN010 OVC032 13/12 A2969 RMK AO2 SLP052 T01330122
Loading
Personal Weather Stations






























Interactive Weather Map New forecast layout! Learn more

10-Day Weather Forecast

Advertisements
Track Severe Weather on mobile